Time;durP1;ratioP1;P1;durP2;ratioP2;P2;SDS_P1;SDS_P2;PMS_P1;PMS_P2;Temp;Humidity;BMP_temperature;BMP_pressure;BME280_temperature;BME280_humidity;BME280_pressure;Samples;Min_cycle;Max_cycle;Signal;HPM_P1;HPM_P2
2023/06/02 00:01:19;;;;;;;;;19.75;15.50;;;;;;;;5113933;28;8801;-77
2023/06/02 00:03:44;;;;;;;;;21.00;18.25;;;;;;;;5114024;28;8773;-77
2023/06/02 00:06:14;;;;;;;;;20.50;18.75;;;;;;;;5112833;28;8813;-77
2023/06/02 00:08:40;;;;;;;;;20.00;17.00;;;;;;;;5093982;28;8970;-77
2023/06/02 00:11:06;;;;;;;;;18.25;17.00;;;;;;;;5093580;28;11056;-78
2023/06/02 00:13:31;;;;;;;;;20.75;15.00;;;;;;;;5093622;28;10731;-78
2023/06/02 00:15:56;;;;;;;;;19.00;16.75;;;;;;;;5093239;28;10877;-78
2023/06/02 00:18:25;;;;;;;;;16.50;15.25;;;;;;;;5093458;28;8772;-77
2023/06/02 00:20:50;;;;;;;;;16.50;14.75;;;;;;;;5093516;28;8803;-76
2023/06/02 00:23:16;;;;;;;;;18.25;16.75;;;;;;;;5092044;28;10908;-76
2023/06/02 00:25:41;;;;;;;;;22.75;19.00;;;;;;;;5093374;28;8784;-77
2023/06/02 00:28:06;;;;;;;;;23.25;18.25;;;;;;;;5095716;28;8887;-76
2023/06/02 00:30:33;;;;;;;;;19.25;15.50;;;;;;;;5111970;28;8821;-77
2023/06/02 00:32:59;;;;;;;;;16.75;14.00;;;;;;;;5113243;27;9511;-77
2023/06/02 00:35:24;;;;;;;;;15.50;13.75;;;;;;;;5113693;28;10744;-77
2023/06/02 00:37:50;;;;;;;;;18.75;16.00;;;;;;;;5101518;28;8792;-77
2023/06/02 00:40:15;;;;;;;;;14.75;11.50;;;;;;;;5093193;28;8846;-77
2023/06/02 00:42:40;;;;;;;;;15.75;10.00;;;;;;;;5092982;28;8837;-78
2023/06/02 00:45:06;;;;;;;;;14.75;12.75;;;;;;;;5092867;28;8768;-76
2023/06/02 00:47:31;;;;;;;;;12.00;11.00;;;;;;;;5092703;28;8942;-77
2023/06/02 00:49:57;;;;;;;;;10.75;9.50;;;;;;;;5092823;28;8842;-78
2023/06/02 00:52:22;;;;;;;;;13.25;13.25;;;;;;;;5092834;28;8808;-74
2023/06/02 00:54:48;;;;;;;;;13.50;10.75;;;;;;;;5092762;28;8768;-77
2023/06/02 00:57:13;;;;;;;;;12.00;10.00;;;;;;;;5093188;28;8815;-78
2023/06/02 00:59:38;;;;;;;;;10.75;9.50;;;;;;;;5106388;28;9615;-72
2023/06/02 01:02:04;;;;;;;;;15.00;14.00;;;;;;;;5112304;28;8915;-71
2023/06/02 01:04:32;;;;;;;;;17.75;13.25;;;;;;;;5093467;28;8811;-73
2023/06/02 01:07:00;;;;;;;;;15.00;13.50;;;;;;;;5089743;28;8894;-72
2023/06/02 01:09:27;;;;;;;;;12.50;11.50;;;;;;;;5092009;28;10528;-72
2023/06/02 01:11:52;;;;;;;;;14.75;14.50;;;;;;;;5092043;28;10605;-72
2023/06/02 01:14:18;;;;;;;;;13.00;11.50;;;;;;;;5091848;28;10576;-72
2023/06/02 01:16:44;;;;;;;;;14.25;13.50;;;;;;;;5091742;28;8780;-71
2023/06/02 01:19:14;;;;;;;;;14.00;12.00;;;;;;;;5091924;28;8784;-72
2023/06/02 01:21:42;;;;;;;;;14.75;12.00;;;;;;;;5091748;28;10581;-72
2023/06/02 01:24:07;;;;;;;;;14.50;13.00;;;;;;;;5089112;28;10577;-72
2023/06/02 01:26:34;;;;;;;;;18.50;14.75;;;;;;;;5091660;28;10669;-72
2023/06/02 01:29:03;;;;;;;;;13.50;11.50;;;;;;;;5093113;28;8868;-71
2023/06/02 01:31:38;;;;;;;;;11.75;11.25;;;;;;;;5088774;28;10731;-72
2023/06/02 01:34:03;;;;;;;;;11.50;11.50;;;;;;;;5091534;28;10621;-72
2023/06/02 01:36:30;;;;;;;;;12.50;12.50;;;;;;;;5090924;28;10745;-71
2023/06/02 01:38:56;;;;;;;;;11.00;11.00;;;;;;;;5089800;28;8889;-71
2023/06/02 01:41:23;;;;;;;;;14.75;12.50;;;;;;;;5091349;28;10904;-71
2023/06/02 01:43:49;;;;;;;;;12.75;11.00;;;;;;;;5088008;28;10832;-71
2023/06/02 01:46:16;;;;;;;;;10.25;8.00;;;;;;;;5091123;28;10785;-71
2023/06/02 01:48:41;;;;;;;;;12.75;12.00;;;;;;;;5091291;28;10755;-71
2023/06/02 01:51:06;;;;;;;;;12.00;11.00;;;;;;;;5090982;28;10813;-71
2023/06/02 01:53:32;;;;;;;;;11.25;10.75;;;;;;;;5091303;28;8896;-72
2023/06/02 01:55:58;;;;;;;;;15.75;13.75;;;;;;;;5091072;28;8796;-72
2023/06/02 01:58:23;;;;;;;;;12.00;11.00;;;;;;;;5092801;28;8799;-72
2023/06/02 02:00:49;;;;;;;;;12.50;11.50;;;;;;;;5089440;28;10782;-72
2023/06/02 02:03:14;;;;;;;;;12.00;11.00;;;;;;;;5091050;28;8886;-72
2023/06/02 02:05:40;;;;;;;;;13.00;12.00;;;;;;;;5091044;28;8791;-72
2023/06/02 02:08:06;;;;;;;;;12.75;12.00;;;;;;;;5088515;28;9115;-72
2023/06/02 02:10:31;;;;;;;;;14.50;13.00;;;;;;;;5091156;28;8808;-72
2023/06/02 02:12:57;;;;;;;;;13.50;13.25;;;;;;;;5090737;28;11428;-73
2023/06/02 02:15:22;;;;;;;;;13.00;11.75;;;;;;;;5090789;28;8808;-71
2023/06/02 02:17:49;;;;;;;;;15.00;13.00;;;;;;;;5087770;28;8796;-71
2023/06/02 02:20:16;;;;;;;;;13.00;12.75;;;;;;;;5090823;28;9530;-71
2023/06/02 02:22:41;;;;;;;;;14.50;12.75;;;;;;;;5090594;28;11013;-71
2023/06/02 02:25:07;;;;;;;;;13.00;11.25;;;;;;;;5090447;28;11094;-72
2023/06/02 02:27:32;;;;;;;;;13.25;13.25;;;;;;;;5090585;28;8780;-71
2023/06/02 02:29:58;;;;;;;;;12.50;12.50;;;;;;;;5092299;28;9592;-72
2023/06/02 02:32:26;;;;;;;;;12.75;11.25;;;;;;;;5090383;28;8796;-72
2023/06/02 02:34:52;;;;;;;;;13.00;12.25;;;;;;;;5090830;28;9574;-72
2023/06/02 02:37:17;;;;;;;;;15.50;12.50;;;;;;;;5090476;28;10960;-71
2023/06/02 02:39:42;;;;;;;;;14.00;10.00;;;;;;;;5090357;28;8820;-72
2023/06/02 02:42:08;;;;;;;;;14.25;11.75;;;;;;;;5090419;28;9541;-72
2023/06/02 02:44:33;;;;;;;;;13.75;12.00;;;;;;;;5090521;28;8814;-72
2023/06/02 02:46:59;;;;;;;;;12.00;12.00;;;;;;;;5090278;28;9620;-72
2023/06/02 02:49:24;;;;;;;;;14.25;12.75;;;;;;;;5090128;28;8816;-72
2023/06/02 02:51:49;;;;;;;;;15.50;15.50;;;;;;;;5090639;28;8847;-72
2023/06/02 02:54:16;;;;;;;;;11.75;11.00;;;;;;;;5090249;28;8804;-72
2023/06/02 02:56:43;;;;;;;;;14.50;12.00;;;;;;;;5088900;28;8819;-72
2023/06/02 02:59:09;;;;;;;;;12.75;11.00;;;;;;;;5089069;28;12205;-72
2023/06/02 03:01:35;;;;;;;;;12.25;11.00;;;;;;;;5088775;28;10989;-72
2023/06/02 03:04:00;;;;;;;;;12.00;11.25;;;;;;;;5090208;28;8808;-72
2023/06/02 03:06:29;;;;;;;;;15.00;11.75;;;;;;;;5089961;28;8808;-72
2023/06/02 03:08:54;;;;;;;;;13.50;12.75;;;;;;;;5088437;28;8792;-73
2023/06/02 03:11:21;;;;;;;;;12.00;12.00;;;;;;;;5090032;28;11086;-72
2023/06/02 03:13:46;;;;;;;;;9.50;9.50;;;;;;;;5090058;28;8830;-73
2023/06/02 03:16:12;;;;;;;;;11.25;11.25;;;;;;;;5089707;28;10963;-72
2023/06/02 03:18:37;;;;;;;;;14.00;12.00;;;;;;;;5089952;28;8830;-72
2023/06/02 03:21:05;;;;;;;;;12.00;10.50;;;;;;;;5088612;28;8844;-72
2023/06/02 03:23:30;;;;;;;;;12.25;11.00;;;;;;;;5087384;28;8813;-72
2023/06/02 03:25:55;;;;;;;;;9.75;9.75;;;;;;;;5089909;28;10896;-72
2023/06/02 03:28:21;;;;;;;;;12.25;11.00;;;;;;;;5091691;28;8797;-72
2023/06/02 03:30:46;;;;;;;;;11.50;10.25;;;;;;;;5089627;28;8836;-71
2023/06/02 03:33:11;;;;;;;;;10.00;10.00;;;;;;;;5089952;28;8903;-71
2023/06/02 03:35:37;;;;;;;;;10.75;10.00;;;;;;;;5089821;28;9538;-72
2023/06/02 03:38:05;;;;;;;;;11.50;10.00;;;;;;;;5087117;28;8822;-71
2023/06/02 03:40:30;;;;;;;;;11.25;10.00;;;;;;;;5087334;28;8784;-71
2023/06/02 03:42:55;;;;;;;;;14.00;11.25;;;;;;;;5089694;28;10974;-72
2023/06/02 03:45:21;;;;;;;;;14.50;12.25;;;;;;;;5089905;28;8815;-72
2023/06/02 03:47:46;;;;;;;;;10.50;10.50;;;;;;;;5089557;28;9448;-71
2023/06/02 03:50:11;;;;;;;;;12.75;12.25;;;;;;;;5089778;28;8832;-72
2023/06/02 03:52:36;;;;;;;;;12.50;11.75;;;;;;;;5088348;28;8824;-72
2023/06/02 03:55:02;;;;;;;;;12.00;11.00;;;;;;;;5089720;28;8842;-72
2023/06/02 03:57:27;;;;;;;;;9.75;9.25;;;;;;;;5089765;28;8812;-71
2023/06/02 03:59:53;;;;;;;;;13.50;12.75;;;;;;;;5091339;28;8867;-72
2023/06/02 04:02:18;;;;;;;;;12.75;12.00;;;;;;;;5089521;28;8799;-72
2023/06/02 04:04:43;;;;;;;;;13.00;11.00;;;;;;;;5089768;28;8922;-71
2023/06/02 04:07:08;;;;;;;;;15.00;12.25;;;;;;;;5091198;28;8788;-71
2023/06/02 04:09:34;;;;;;;;;13.75;11.25;;;;;;;;5093363;28;8824;-71
2023/06/02 04:12:00;;;;;;;;;10.50;9.75;;;;;;;;5092026;28;8800;-71
2023/06/02 04:14:27;;;;;;;;;12.00;12.00;;;;;;;;5092038;28;8788;-72
2023/06/02 04:16:52;;;;;;;;;11.75;10.25;;;;;;;;5092862;28;8905;-72
2023/06/02 04:19:18;;;;;;;;;12.00;11.00;;;;;;;;5093180;28;11037;-72
2023/06/02 04:21:43;;;;;;;;;15.00;12.00;;;;;;;;5091681;28;8808;-72
2023/06/02 04:24:08;;;;;;;;;10.00;10.00;;;;;;;;5092834;28;8800;-72
2023/06/02 04:26:34;;;;;;;;;11.25;10.50;;;;;;;;5092947;28;8792;-72
2023/06/02 04:29:00;;;;;;;;;9.75;9.75;;;;;;;;5094713;28;8966;-72
2023/06/02 04:31:47;;;;;;;;;8.25;8.00;;;;;;;;5092707;28;8803;-72
2023/06/02 04:34:12;;;;;;;;;13.25;12.75;;;;;;;;5114974;27;8819;-72
2023/06/02 04:36:38;;;;;;;;;10.75;10.00;;;;;;;;5092486;28;11229;-71
2023/06/02 04:39:07;;;;;;;;;11.00;11.00;;;;;;;;5092669;28;8800;-72
2023/06/02 04:41:33;;;;;;;;;12.75;10.00;;;;;;;;5090279;28;8828;-72
2023/06/02 04:44:00;;;;;;;;;11.00;10.75;;;;;;;;5092516;28;11102;-70
2023/06/02 04:46:26;;;;;;;;;10.00;10.00;;;;;;;;5092338;28;8793;-72
2023/06/02 04:48:54;;;;;;;;;9.50;8.00;;;;;;;;5092207;28;11467;-72
2023/06/02 04:51:19;;;;;;;;;16.25;10.00;;;;;;;;5092378;28;11167;-73
2023/06/02 04:53:45;;;;;;;;;10.50;10.50;;;;;;;;5092115;28;12232;-71
2023/06/02 04:56:10;;;;;;;;;11.75;11.25;;;;;;;;5092262;28;8804;-71
2023/06/02 04:58:36;;;;;;;;;12.00;11.00;;;;;;;;5094168;28;9601;-71
2023/06/02 05:01:02;;;;;;;;;13.50;12.25;;;;;;;;5092030;28;8926;-70
2023/06/02 05:03:27;;;;;;;;;10.50;10.50;;;;;;;;5091990;28;8812;-71
2023/06/02 05:05:53;;;;;;;;;11.25;10.75;;;;;;;;5095012;28;9543;-71
2023/06/02 05:08:18;;;;;;;;;13.00;10.75;;;;;;;;5103365;28;8817;-71
2023/06/02 05:10:43;;;;;;;;;12.25;10.75;;;;;;;;5104220;28;8913;-70
2023/06/02 05:13:09;;;;;;;;;9.50;9.00;;;;;;;;5113004;28;8782;-72
2023/06/02 05:15:34;;;;;;;;;13.00;11.50;;;;;;;;5112845;28;8831;-76
2023/06/02 05:18:00;;;;;;;;;10.50;10.00;;;;;;;;5112979;28;8800;-75
2023/06/02 05:20:25;;;;;;;;;14.50;11.25;;;;;;;;5112645;28;9543;-72
2023/06/02 07:25:11;;;;;;;;;11.00;10.50;;;;;;;;5084555;27;13403;-66
2023/06/02 07:27:36;;;;;;;;;10.25;9.00;;;;;;;;5083871;28;10072;-66
2023/06/02 07:30:04;;;;;;;;;12.00;11.00;;;;;;;;5087402;28;8842;-67
2023/06/02 07:32:29;;;;;;;;;9.50;9.50;;;;;;;;5088054;28;9541;-68
2023/06/02 07:34:54;;;;;;;;;10.00;10.00;;;;;;;;5087502;28;9738;-70
2023/06/02 07:37:19;;;;;;;;;8.00;8.00;;;;;;;;5087534;28;8852;-73
2023/06/02 07:39:45;;;;;;;;;10.50;9.00;;;;;;;;5087670;28;8790;-75
2023/06/02 07:42:10;;;;;;;;;7.00;7.00;;;;;;;;5087274;28;8806;-74
2023/06/02 07:44:36;;;;;;;;;7.67;7.67;;;;;;;;5087692;28;8802;-73
2023/06/02 07:47:01;;;;;;;;;10.67;10.00;;;;;;;;5087644;28;8809;-73
2023/06/02 07:49:26;;;;;;;;;9.33;9.33;;;;;;;;5086980;28;8783;-70
2023/06/02 07:51:52;;;;;;;;;7.00;7.00;;;;;;;;5086126;28;8844;-70
2023/06/02 07:54:17;;;;;;;;;13.33;11.00;;;;;;;;5085923;28;8907;-69
2023/06/02 07:56:42;;;;;;;;;9.33;7.00;;;;;;;;5086954;28;8901;-71
2023/06/02 07:59:11;;;;;;;;;12.67;8.00;;;;;;;;5087430;28;8806;-72
2023/06/02 08:01:37;;;;;;;;;8.00;8.00;;;;;;;;5087333;28;8798;-71
2023/06/02 08:04:02;;;;;;;;;9.00;9.00;;;;;;;;5085770;28;9716;-71
2023/06/02 08:06:27;;;;;;;;;9.67;8.67;;;;;;;;5085305;28;8875;-71
2023/06/02 08:08:53;;;;;;;;;9.00;7.00;;;;;;;;5086563;28;9521;-71
2023/06/02 08:11:18;;;;;;;;;8.33;8.33;;;;;;;;5086763;28;8783;-71
2023/06/02 08:13:44;;;;;;;;;11.67;9.00;;;;;;;;5086108;28;8790;-71
2023/06/02 08:16:09;;;;;;;;;14.33;14.33;;;;;;;;5086369;28;8783;-71
2023/06/02 08:18:34;;;;;;;;;15.00;13.67;;;;;;;;5086355;28;8783;-71
2023/06/02 08:21:00;;;;;;;;;14.33;12.67;;;;;;;;5086282;28;8782;-71
2023/06/02 08:23:25;;;;;;;;;4.00;4.00;;;;;;;;5091784;28;8817;-71
2023/06/02 08:25:53;;;;;;;;;11.00;10.67;;;;;;;;5106685;28;8829;-71
2023/06/02 08:28:24;;;;;;;;;10.50;9.50;;;;;;;;5107133;28;8770;-71
2023/06/02 08:30:51;;;;;;;;;7.75;7.75;;;;;;;;5107289;28;8893;-71
2023/06/02 08:33:16;;;;;;;;;9.00;9.00;;;;;;;;5106770;28;8813;-71
2023/06/02 08:35:41;;;;;;;;;8.00;8.00;;;;;;;;5098136;28;8902;-71
2023/06/02 08:38:09;;;;;;;;;14.67;14.00;;;;;;;;5093396;28;8870;-71
2023/06/02 08:40:36;;;;;;;;;8.00;8.00;;;;;;;;5093439;28;8813;-71
2023/06/02 08:43:03;;;;;;;;;9.25;8.25;;;;;;;;5075250;28;8793;-71
2023/06/02 08:45:29;;;;;;;;;9.00;8.00;;;;;;;;5093585;28;8786;-70
2023/06/02 08:47:56;;;;;;;;;7.50;7.25;;;;;;;;5093063;28;8846;-70
2023/06/02 08:50:23;;;;;;;;;9.00;8.00;;;;;;;;5092917;28;8871;-71
2023/06/02 08:52:50;;;;;;;;;8.00;8.00;;;;;;;;5093098;28;8778;-70
2023/06/02 08:55:15;;;;;;;;;10.00;10.00;;;;;;;;5093399;28;8785;-71
2023/06/02 08:57:40;;;;;;;;;8.00;8.00;;;;;;;;5093543;28;8801;-70
2023/06/02 09:00:06;;;;;;;;;8.67;8.67;;;;;;;;5093133;28;8794;-71
2023/06/02 09:02:32;;;;;;;;;9.50;9.00;;;;;;;;5093126;28;8790;-71
2023/06/02 09:04:58;;;;;;;;;6.67;6.67;;;;;;;;5092735;28;8822;-71
2023/06/02 09:07:23;;;;;;;;;6.75;6.25;;;;;;;;5092561;28;8778;-71
2023/06/02 09:09:51;;;;;;;;;8.67;8.67;;;;;;;;5093168;28;8758;-73
2023/06/02 09:12:17;;;;;;;;;7.25;7.25;;;;;;;;5092937;28;8762;-71
2023/06/02 09:14:43;;;;;;;;;8.50;8.50;;;;;;;;5092850;28;8802;-72
2023/06/02 09:17:38;;;;;;;;;9.33;9.33;;;;;;;;5092474;28;8917;-72
2023/06/02 09:20:12;;;;;;;;;9.00;9.00;;;;;;;;5009683;28;8909;-72
2023/06/02 09:22:57;;;;;;;;;10.50;9.25;;;;;;;;5007124;28;8827;-71
2023/06/02 09:25:24;;;;;;;;;8.75;8.75;;;;;;;;5009699;28;8822;-71
2023/06/02 09:27:53;;;;;;;;;8.75;7.50;;;;;;;;5009921;28;8790;-71
2023/06/02 09:30:19;;;;;;;;;8.50;8.50;;;;;;;;5009905;28;8821;-71
2023/06/02 09:32:56;;;;;;;;;8.00;8.00;;;;;;;;5009413;28;8818;-71
2023/06/02 09:35:40;;;;;;;;;11.50;11.25;;;;;;;;5007422;28;10178;-72
2023/06/02 09:38:07;;;;;;;;;9.00;9.00;;;;;;;;5007670;28;8803;-72
2023/06/02 09:40:34;;;;;;;;;10.00;9.50;;;;;;;;5009352;28;8815;-71
2023/06/02 09:43:04;;;;;;;;;11.00;10.00;;;;;;;;5009612;28;8803;-70
2023/06/02 09:45:29;;;;;;;;;13.75;12.75;;;;;;;;5009675;28;8795;-71
2023/06/02 09:47:55;;;;;;;;;14.67;13.33;;;;;;;;5020866;28;8801;-71
2023/06/02 09:50:32;;;;;;;;;15.33;12.67;;;;;;;;5029028;28;8838;-71
2023/06/02 09:53:03;;;;;;;;;13.00;12.75;;;;;;;;5029220;28;8788;-71
2023/06/02 09:55:28;;;;;;;;;14.50;14.50;;;;;;;;5020415;28;8878;-72
2023/06/02 09:57:54;;;;;;;;;19.33;19.33;;;;;;;;5109384;28;8792;-72
2023/06/02 10:00:20;;;;;;;;;16.00;16.00;;;;;;;;5112040;28;8776;-70
2023/06/02 10:02:46;;;;;;;;;17.00;17.00;;;;;;;;5111867;28;8813;-71
2023/06/02 10:05:11;;;;;;;;;13.50;12.00;;;;;;;;5086340;28;8818;-73
2023/06/02 10:07:50;;;;;;;;;13.00;13.00;;;;;;;;5071659;28;8822;-72
2023/06/02 10:10:16;;;;;;;;;16.75;14.75;;;;;;;;5091485;28;9667;-72
2023/06/02 10:13:00;;;;;;;;;14.00;14.00;;;;;;;;5091351;28;8793;-72
2023/06/02 10:15:38;;;;;;;;;13.00;13.00;;;;;;;;5073220;28;8794;-73
2023/06/02 10:18:24;;;;;;;;;16.75;16.75;;;;;;;;5089709;28;8812;-72
2023/06/02 10:20:55;;;;;;;;;19.33;19.33;;;;;;;;5090934;28;8790;-73
2023/06/02 10:23:20;;;;;;;;;19.33;18.33;;;;;;;;5091066;28;9062;-72
2023/06/02 10:25:45;;;;;;;;;16.67;16.67;;;;;;;;5072972;28;8892;-74
2023/06/02 10:28:11;;;;;;;;;18.67;17.00;;;;;;;;5089632;28;8782;-73
2023/06/02 10:30:37;;;;;;;;;19.33;19.00;;;;;;;;5090924;28;8901;-74
2023/06/02 10:33:02;;;;;;;;;23.00;21.00;;;;;;;;5090960;28;8816;-75
2023/06/02 10:35:55;;;;;;;;;24.00;24.00;;;;;;;;5090113;28;8840;-76
2023/06/02 10:38:39;;;;;;;;;17.67;16.00;;;;;;;;5088805;28;8796;-74
2023/06/02 10:41:04;;;;;;;;;17.33;17.00;;;;;;;;5109407;28;8892;-74
2023/06/02 10:43:32;;;;;;;;;18.67;18.67;;;;;;;;5091075;28;9151;-75
2023/06/02 10:46:20;;;;;;;;;22.00;19.00;;;;;;;;5091513;28;8946;-75
2023/06/02 10:48:46;;;;;;;;;22.00;21.00;;;;;;;;5109684;28;9096;-75
2023/06/02 10:51:14;;;;;;;;;20.00;18.00;;;;;;;;5109424;28;9047;-75
2023/06/02 10:53:58;;;;;;;;;18.00;17.25;;;;;;;;5091290;28;9553;-75
2023/06/02 10:56:36;;;;;;;;;18.00;18.00;;;;;;;;5106365;28;8837;-75
2023/06/02 10:59:01;;;;;;;;;18.75;16.50;;;;;;;;5067809;28;9960;-75
2023/06/02 11:01:46;;;;;;;;;13.67;12.67;;;;;;;;5050305;28;8805;-75
2023/06/02 11:04:23;;;;;;;;;20.25;15.00;;;;;;;;5050362;28;8825;-75
2023/06/02 11:07:09;;;;;;;;;15.00;15.00;;;;;;;;5035069;28;8841;-74
2023/06/02 11:09:42;;;;;;;;;14.75;14.75;;;;;;;;5049889;28;8817;-75
2023/06/02 11:12:08;;;;;;;;;17.33;15.67;;;;;;;;5050386;28;8790;-75
2023/06/02 11:14:53;;;;;;;;;15.67;15.33;;;;;;;;5050348;28;9031;-74
2023/06/02 11:17:28;;;;;;;;;12.67;12.00;;;;;;;;5048226;28;8831;-73
2023/06/02 11:19:54;;;;;;;;;17.33;17.00;;;;;;;;5049937;28;8966;-75
2023/06/02 11:22:19;;;;;;;;;14.67;14.33;;;;;;;;5050159;28;9246;-74
2023/06/02 11:24:45;;;;;;;;;13.67;13.67;;;;;;;;5049825;28;8959;-75
2023/06/02 11:27:10;;;;;;;;;14.33;14.00;;;;;;;;5049134;28;9811;-75
2023/06/02 11:29:36;;;;;;;;;12.67;12.67;;;;;;;;5049179;28;8928;-76
2023/06/02 11:32:02;;;;;;;;;17.00;14.33;;;;;;;;5048266;28;8898;-77
2023/06/02 11:34:28;;;;;;;;;14.67;13.33;;;;;;;;5049795;28;8944;-80
2023/06/02 11:36:54;;;;;;;;;15.00;15.00;;;;;;;;5063654;28;9429;-79
2023/06/02 11:39:19;;;;;;;;;15.33;13.00;;;;;;;;5048335;28;8898;-78
2023/06/02 11:41:54;;;;;;;;;15.00;15.00;;;;;;;;5049997;28;8793;-75
2023/06/02 11:44:19;;;;;;;;;16.00;14.00;;;;;;;;5049460;28;8836;-75
2023/06/02 11:46:45;;;;;;;;;15.67;14.33;;;;;;;;5048198;28;9129;-72
2023/06/02 11:49:11;;;;;;;;;17.67;16.67;;;;;;;;5048591;28;8847;-75
2023/06/02 11:51:36;;;;;;;;;17.33;15.67;;;;;;;;5049847;28;8981;-77
2023/06/02 11:54:07;;;;;;;;;17.00;14.00;;;;;;;;5049816;28;8793;-77
2023/06/02 11:56:33;;;;;;;;;14.00;13.75;;;;;;;;5049646;28;8952;-74
2023/06/02 11:58:58;;;;;;;;;17.00;14.67;;;;;;;;5069446;28;8913;-74
2023/06/02 12:01:30;;;;;;;;;17.00;15.67;;;;;;;;5070085;28;8798;-75
2023/06/02 12:04:01;;;;;;;;;15.00;15.00;;;;;;;;5069961;28;8849;-76
2023/06/02 12:06:27;;;;;;;;;16.00;16.00;;;;;;;;5051361;28;9008;-78
2023/06/02 12:08:52;;;;;;;;;18.00;17.00;;;;;;;;5048183;28;9064;-75
2023/06/02 12:11:18;;;;;;;;;17.33;17.33;;;;;;;;5052319;28;8853;-75
2023/06/02 12:13:55;;;;;;;;;12.67;11.33;;;;;;;;5051383;28;8833;-75
2023/06/02 12:16:21;;;;;;;;;12.00;12.00;;;;;;;;5051102;28;10164;-75
2023/06/02 12:18:47;;;;;;;;;17.00;15.67;;;;;;;;5052034;28;9047;-73
2023/06/02 12:21:26;;;;;;;;;15.67;15.00;;;;;;;;5051947;28;8841;-74
2023/06/02 12:23:51;;;;;;;;;14.67;14.67;;;;;;;;5049699;28;8860;-82
2023/06/02 12:26:17;;;;;;;;;17.33;17.33;;;;;;;;5050906;28;9086;-76
2023/06/02 12:28:42;;;;;;;;;14.67;14.33;;;;;;;;5050555;28;8833;-76
2023/06/02 12:31:08;;;;;;;;;14.67;14.00;;;;;;;;5050601;28;9791;-82
2023/06/02 12:33:34;;;;;;;;;12.00;12.00;;;;;;;;5047522;28;8832;-76
2023/06/02 12:35:59;;;;;;;;;17.33;16.00;;;;;;;;5050434;28;8806;-76
2023/06/02 12:38:25;;;;;;;;;16.00;16.00;;;;;;;;5052190;28;8954;-76
2023/06/02 12:40:50;;;;;;;;;13.33;12.00;;;;;;;;5051755;28;8901;-76
2023/06/02 12:43:18;;;;;;;;;17.00;17.00;;;;;;;;5051501;28;8843;-76
2023/06/02 12:45:46;;;;;;;;;16.33;16.33;;;;;;;;5051648;28;8833;-76
2023/06/02 12:48:12;;;;;;;;;12.00;11.33;;;;;;;;5048151;28;9959;-75
2023/06/02 12:50:38;;;;;;;;;19.00;17.67;;;;;;;;5037060;28;9751;-75
2023/06/02 12:53:06;;;;;;;;;18.67;16.33;;;;;;;;5070507;28;10112;-78
2023/06/02 12:55:33;;;;;;;;;16.67;16.00;;;;;;;;5045501;28;8824;-76
2023/06/02 12:57:58;;;;;;;;;18.33;16.33;;;;;;;;5050233;28;9240;-75
2023/06/02 13:00:24;;;;;;;;;16.00;16.00;;;;;;;;5051341;28;9055;-78
2023/06/02 13:02:49;;;;;;;;;17.33;16.33;;;;;;;;5047573;28;8974;-82
2023/06/02 13:05:14;;;;;;;;;16.00;14.33;;;;;;;;5044087;28;8859;-75
2023/06/02 13:07:41;;;;;;;;;15.67;15.67;;;;;;;;5052940;28;8824;-78
2023/06/02 13:10:10;;;;;;;;;19.67;18.00;;;;;;;;5051646;28;8805;-75
2023/06/02 13:12:36;;;;;;;;;14.00;13.00;;;;;;;;5050948;28;9287;-74
2023/06/02 13:15:03;;;;;;;;;16.00;16.00;;;;;;;;5049753;28;9062;-75
2023/06/02 13:17:30;;;;;;;;;15.67;14.67;;;;;;;;5052312;28;9143;-73
2023/06/02 13:19:55;;;;;;;;;16.75;16.75;;;;;;;;5050879;28;8897;-75
2023/06/02 13:22:20;;;;;;;;;17.00;17.00;;;;;;;;5050421;28;8874;-72
2023/06/02 13:24:46;;;;;;;;;17.00;14.00;;;;;;;;5050333;28;8857;-71
2023/06/02 13:27:12;;;;;;;;;15.33;13.67;;;;;;;;5047107;28;8828;-72
2023/06/02 13:29:37;;;;;;;;;17.33;17.00;;;;;;;;5050531;28;9517;-72
2023/06/02 13:32:03;;;;;;;;;14.00;13.00;;;;;;;;5050522;28;9582;-71
2023/06/02 13:34:29;;;;;;;;;9.00;8.50;;;;;;;;5050336;28;8805;-70
2023/06/02 13:36:54;;;;;;;;;7.25;6.25;;;;;;;;5052018;28;8832;-74
2023/06/02 13:39:20;;;;;;;;;8.33;7.33;;;;;;;;5049954;28;8793;-74
2023/06/02 13:41:45;;;;;;;;;7.33;6.00;;;;;;;;5050702;28;8875;-75
2023/06/02 13:44:16;;;;;;;;;6.33;6.00;;;;;;;;5050508;28;8845;-75
2023/06/02 13:46:41;;;;;;;;;9.00;8.00;;;;;;;;5048868;28;8834;-76
2023/06/02 13:49:06;;;;;;;;;7.00;7.00;;;;;;;;5049259;28;8906;-76
2023/06/02 13:51:32;;;;;;;;;7.00;7.00;;;;;;;;5050416;28;8821;-70
2023/06/02 13:53:57;;;;;;;;;8.33;8.00;;;;;;;;5050193;28;8801;-72
2023/06/02 13:56:23;;;;;;;;;6.67;6.00;;;;;;;;5048823;28;8950;-71
2023/06/02 13:58:48;;;;;;;;;6.33;6.33;;;;;;;;5048719;28;8794;-74
2023/06/02 14:01:13;;;;;;;;;7.00;6.00;;;;;;;;5048314;28;8790;-73
2023/06/02 14:03:42;;;;;;;;;6.00;6.00;;;;;;;;5050066;28;8864;-72
2023/06/02 14:06:07;;;;;;;;;10.00;7.50;;;;;;;;5049868;28;8920;-72
2023/06/02 14:08:35;;;;;;;;;10.00;8.67;;;;;;;;5049777;28;8953;-72
2023/06/02 14:11:04;;;;;;;;;8.75;8.25;;;;;;;;5050080;28;8831;-72
2023/06/02 14:13:29;;;;;;;;;8.75;7.25;;;;;;;;5050101;28;8820;-72
2023/06/02 14:15:54;;;;;;;;;6.00;6.00;;;;;;;;5049930;28;8809;-72
2023/06/02 14:18:20;;;;;;;;;9.00;8.00;;;;;;;;5050045;28;8809;-72
2023/06/02 14:20:45;;;;;;;;;9.00;8.67;;;;;;;;5049205;28;8797;-73
2023/06/02 14:23:11;;;;;;;;;7.00;7.00;;;;;;;;5048394;28;8923;-73
2023/06/02 14:25:36;;;;;;;;;8.00;8.00;;;;;;;;5049565;28;8809;-72
2023/06/02 14:28:01;;;;;;;;;8.00;7.00;;;;;;;;5049227;28;8821;-73
2023/06/02 14:30:26;;;;;;;;;12.67;7.67;;;;;;;;5049880;28;8809;-72
2023/06/02 14:32:52;;;;;;;;;6.67;5.00;;;;;;;;5049000;28;8852;-73
2023/06/02 14:35:19;;;;;;;;;8.00;6.33;;;;;;;;5046831;28;8844;-75
2023/06/02 14:37:45;;;;;;;;;5.00;5.00;;;;;;;;5048516;28;8833;-76
2023/06/02 14:40:10;;;;;;;;;10.00;9.00;;;;;;;;5048300;28;8829;-76
2023/06/02 14:42:35;;;;;;;;;7.33;7.00;;;;;;;;5050036;28;8809;-76
2023/06/02 14:45:01;;;;;;;;;8.67;8.67;;;;;;;;5049538;28;8955;-76
2023/06/02 14:47:32;;;;;;;;;9.00;8.00;;;;;;;;5049540;28;8874;-76
2023/06/02 14:49:58;;;;;;;;;11.00;10.75;;;;;;;;5046878;28;8793;-72
2023/06/02 14:52:23;;;;;;;;;11.67;10.67;;;;;;;;5050297;28;8791;-70
2023/06/02 14:54:48;;;;;;;;;8.33;8.33;;;;;;;;5046901;28;9592;-70
2023/06/02 14:57:14;;;;;;;;;6.33;6.00;;;;;;;;5049130;28;8801;-73
2023/06/02 14:59:40;;;;;;;;;11.67;9.33;;;;;;;;5049031;28;8794;-73
2023/06/02 15:02:06;;;;;;;;;10.00;9.00;;;;;;;;5041962;28;8825;-73
2023/06/02 15:04:31;;;;;;;;;12.33;11.00;;;;;;;;5047736;28;8947;-77
2023/06/02 15:06:56;;;;;;;;;9.00;9.00;;;;;;;;5048695;28;11509;-80
2023/06/02 15:09:29;;;;;;;;;11.00;11.00;;;;;;;;5047865;28;8828;-78
2023/06/02 15:13:19;;;;;;;;;15.00;12.75;;;;;;;;5083786;27;13465;-73
2023/06/02 15:15:45;;;;;;;;;12.33;11.33;;;;;;;;5083779;28;9506;-75
2023/06/02 15:18:10;;;;;;;;;14.00;12.33;;;;;;;;5086890;28;9322;-74
2023/06/02 15:20:35;;;;;;;;;15.25;15.25;;;;;;;;5082954;28;8825;-78
2023/06/02 15:23:04;;;;;;;;;19.25;16.00;;;;;;;;5062717;28;8949;-77
2023/06/02 15:25:29;;;;;;;;;16.00;14.33;;;;;;;;5046435;28;9622;-78
2023/06/02 15:27:55;;;;;;;;;12.00;11.00;;;;;;;;5057506;28;9457;-73
2023/06/02 15:30:22;;;;;;;;;12.33;11.00;;;;;;;;5066618;28;9787;-78
2023/06/02 15:32:48;;;;;;;;;10.33;10.33;;;;;;;;5055410;28;8864;-76
2023/06/02 15:35:15;;;;;;;;;11.25;10.00;;;;;;;;5066035;28;9198;-76
2023/06/02 15:37:40;;;;;;;;;12.25;10.25;;;;;;;;5066621;28;8836;-76
2023/06/02 15:40:06;;;;;;;;;14.50;12.50;;;;;;;;5066528;28;9662;-76
2023/06/02 15:42:31;;;;;;;;;13.00;11.25;;;;;;;;5062547;28;8817;-74
2023/06/02 15:44:56;;;;;;;;;12.00;10.33;;;;;;;;5064386;28;9504;-74
2023/06/02 15:47:21;;;;;;;;;10.33;8.67;;;;;;;;5066183;28;8808;-77
2023/06/02 15:49:50;;;;;;;;;11.00;11.00;;;;;;;;5066445;28;8793;-75
2023/06/02 15:52:15;;;;;;;;;13.25;12.50;;;;;;;;5066717;28;8805;-75
2023/06/02 15:54:49;;;;;;;;;13.00;13.00;;;;;;;;5064499;28;9592;-76
2023/06/02 15:57:14;;;;;;;;;13.25;12.50;;;;;;;;5088843;22;8883;-68
2023/06/02 15:59:41;;;;;;;;;13.25;11.25;;;;;;;;5085533;28;9577;-70
2023/06/02 16:02:06;;;;;;;;;12.50;11.25;;;;;;;;5085070;28;8851;-68
2023/06/02 16:04:31;;;;;;;;;14.25;13.00;;;;;;;;5082894;28;9621;-68
2023/06/02 16:06:57;;;;;;;;;10.00;10.00;;;;;;;;5084929;28;8935;-69
2023/06/02 16:09:22;;;;;;;;;14.25;13.00;;;;;;;;5075976;28;8915;-70
2023/06/02 16:11:47;;;;;;;;;14.50;12.00;;;;;;;;5085577;28;8835;-70
2023/06/02 16:14:13;;;;;;;;;14.50;13.50;;;;;;;;5079536;28;8826;-70
2023/06/02 16:16:38;;;;;;;;;14.00;12.75;;;;;;;;5076165;28;8812;-70
2023/06/02 16:19:03;;;;;;;;;12.25;11.00;;;;;;;;5075269;28;9404;-71
2023/06/02 16:21:28;;;;;;;;;13.00;11.50;;;;;;;;5077338;28;8846;-73
2023/06/02 16:23:56;;;;;;;;;15.50;13.50;;;;;;;;5054115;28;8804;-69
2023/06/02 16:26:21;;;;;;;;;13.50;12.50;;;;;;;;5033689;28;8864;-68
2023/06/02 16:28:46;;;;;;;;;12.50;11.00;;;;;;;;5051281;28;10301;-73
2023/06/02 16:31:12;;;;;;;;;13.50;12.00;;;;;;;;5050973;28;8823;-70
2023/06/02 16:33:37;;;;;;;;;13.25;13.25;;;;;;;;5053683;28;8808;-70
2023/06/02 16:36:03;;;;;;;;;12.50;11.75;;;;;;;;5070818;28;8849;-73